sensor_id;sensor_type;location;lat;lon;timestamp;P1;durP1;ratioP1;P2;durP2;ratioP2
14100;SDS011;7127;49.372;8.166;2022-09-04T00:00:18;1.53;;;0.90;;
14100;SDS011;7127;49.372;8.166;2022-09-04T00:03:02;1.27;;;1.00;;
14100;SDS011;7127;49.372;8.166;2022-09-04T00:05:42;0.70;;;0.70;;
14100;SDS011;7127;49.372;8.166;2022-09-04T00:08:16;0.90;;;0.90;;
14100;SDS011;7127;49.372;8.166;2022-09-04T00:10:55;0.90;;;0.90;;
14100;SDS011;7127;49.372;8.166;2022-09-04T00:13:30;1.10;;;1.00;;
14100;SDS011;7127;49.372;8.166;2022-09-04T00:16:04;1.10;;;1.10;;
14100;SDS011;7127;49.372;8.166;2022-09-04T00:18:38;2.57;;;0.80;;
14100;SDS011;7127;49.372;8.166;2022-09-04T00:21:12;1.10;;;0.90;;
14100;SDS011;7127;49.372;8.166;2022-09-04T00:23:47;1.17;;;1.07;;
14100;SDS011;7127;49.372;8.166;2022-09-04T00:26:24;1.40;;;1.00;;
14100;SDS011;7127;49.372;8.166;2022-09-04T00:29:05;1.90;;;0.90;;
14100;SDS011;7127;49.372;8.166;2022-09-04T00:31:40;1.23;;;1.00;;
14100;SDS011;7127;49.372;8.166;2022-09-04T00:34:16;1.00;;;1.00;;
14100;SDS011;7127;49.372;8.166;2022-09-04T00:36:56;1.27;;;0.73;;
14100;SDS011;7127;49.372;8.166;2022-09-04T00:39:32;1.00;;;0.90;;
14100;SDS011;7127;49.372;8.166;2022-09-04T00:42:06;0.80;;;0.80;;
14100;SDS011;7127;49.372;8.166;2022-09-04T00:44:55;0.70;;;0.70;;
14100;SDS011;7127;49.372;8.166;2022-09-04T00:47:46;0.90;;;0.90;;
14100;SDS011;7127;49.372;8.166;2022-09-04T00:50:43;0.80;;;0.80;;
14100;SDS011;7127;49.372;8.166;2022-09-04T00:53:35;0.97;;;0.97;;
14100;SDS011;7127;49.372;8.166;2022-09-04T00:56:28;0.93;;;0.90;;
14100;SDS011;7127;49.372;8.166;2022-09-04T00:59:21;1.57;;;1.03;;
14100;SDS011;7127;49.372;8.166;2022-09-04T01:02:05;1.00;;;0.90;;
14100;SDS011;7127;49.372;8.166;2022-09-04T01:04:47;1.07;;;0.97;;
14100;SDS011;7127;49.372;8.166;2022-09-04T01:07:27;0.70;;;0.70;;
14100;SDS011;7127;49.372;8.166;2022-09-04T01:10:18;0.93;;;0.93;;
14100;SDS011;7127;49.372;8.166;2022-09-04T01:12:56;0.80;;;0.80;;
14100;SDS011;7127;49.372;8.166;2022-09-04T01:15:30;0.80;;;0.80;;
14100;SDS011;7127;49.372;8.166;2022-09-04T01:18:05;0.77;;;0.77;;
14100;SDS011;7127;49.372;8.166;2022-09-04T01:20:46;0.70;;;0.70;;
14100;SDS011;7127;49.372;8.166;2022-09-04T01:23:44;0.70;;;0.70;;
14100;SDS011;7127;49.372;8.166;2022-09-04T01:26:29;0.60;;;0.60;;
14100;SDS011;7127;49.372;8.166;2022-09-04T01:29:04;0.80;;;0.80;;
14100;SDS011;7127;49.372;8.166;2022-09-04T01:31:43;0.67;;;0.67;;
14100;SDS011;7127;49.372;8.166;2022-09-04T01:34:21;0.70;;;0.70;;
14100;SDS011;7127;49.372;8.166;2022-09-04T01:36:57;0.80;;;0.80;;
14100;SDS011;7127;49.372;8.166;2022-09-04T01:39:47;0.70;;;0.70;;
14100;SDS011;7127;49.372;8.166;2022-09-04T01:42:22;0.63;;;0.63;;
14100;SDS011;7127;49.372;8.166;2022-09-04T01:44:58;1.03;;;0.77;;
14100;SDS011;7127;49.372;8.166;2022-09-04T01:47:26;0.90;;;0.90;;
14100;SDS011;7127;49.372;8.166;2022-09-04T01:50:04;0.70;;;0.70;;
14100;SDS011;7127;49.372;8.166;2022-09-04T01:52:37;0.57;;;0.57;;
14100;SDS011;7127;49.372;8.166;2022-09-04T01:55:20;0.77;;;0.77;;
14100;SDS011;7127;49.372;8.166;2022-09-04T01:57:59;0.70;;;0.70;;
14100;SDS011;7127;49.372;8.166;2022-09-04T02:00:40;0.80;;;0.80;;
14100;SDS011;7127;49.372;8.166;2022-09-04T02:03:17;0.80;;;0.80;;
14100;SDS011;7127;49.372;8.166;2022-09-04T02:05:52;0.80;;;0.80;;
14100;SDS011;7127;49.372;8.166;2022-09-04T02:11:23;1.00;;;0.80;;
14100;SDS011;7127;49.372;8.166;2022-09-04T02:14:00;2.07;;;0.80;;
14100;SDS011;7127;49.372;8.166;2022-09-04T02:16:38;0.73;;;0.73;;
14100;SDS011;7127;49.372;8.166;2022-09-04T02:19:35;0.70;;;0.70;;
14100;SDS011;7127;49.372;8.166;2022-09-04T02:22:10;0.93;;;0.93;;
14100;SDS011;7127;49.372;8.166;2022-09-04T02:24:47;0.90;;;0.73;;
14100;SDS011;7127;49.372;8.166;2022-09-04T02:27:23;0.80;;;0.80;;
14100;SDS011;7127;49.372;8.166;2022-09-04T02:29:59;1.57;;;1.30;;
14100;SDS011;7127;49.372;8.166;2022-09-04T02:32:32;1.40;;;1.20;;
14100;SDS011;7127;49.372;8.166;2022-09-04T02:35:07;1.37;;;1.27;;
14100;SDS011;7127;49.372;8.166;2022-09-04T02:37:44;1.50;;;1.40;;
14100;SDS011;7127;49.372;8.166;2022-09-04T02:40:23;1.73;;;1.40;;
14100;SDS011;7127;49.372;8.166;2022-09-04T02:42:59;1.60;;;1.40;;
14100;SDS011;7127;49.372;8.166;2022-09-04T02:45:41;1.40;;;1.30;;
14100;SDS011;7127;49.372;8.166;2022-09-04T02:48:14;1.77;;;1.60;;
14100;SDS011;7127;49.372;8.166;2022-09-04T02:50:52;1.60;;;1.50;;
14100;SDS011;7127;49.372;8.166;2022-09-04T02:53:28;1.53;;;1.43;;
14100;SDS011;7127;49.372;8.166;2022-09-04T02:56:05;1.70;;;1.47;;
14100;SDS011;7127;49.372;8.166;2022-09-04T02:58:45;1.30;;;1.20;;
14100;SDS011;7127;49.372;8.166;2022-09-04T03:01:24;1.17;;;1.07;;
14100;SDS011;7127;49.372;8.166;2022-09-04T03:03:58;1.00;;;1.00;;
14100;SDS011;7127;49.372;8.166;2022-09-04T03:06:37;0.90;;;0.90;;
14100;SDS011;7127;49.372;8.166;2022-09-04T03:09:13;1.43;;;1.20;;
14100;SDS011;7127;49.372;8.166;2022-09-04T03:11:47;1.20;;;1.10;;
14100;SDS011;7127;49.372;8.166;2022-09-04T03:14:21;2.40;;;1.10;;
14100;SDS011;7127;49.372;8.166;2022-09-04T03:16:59;1.03;;;1.00;;
14100;SDS011;7127;49.372;8.166;2022-09-04T03:19:33;1.13;;;1.03;;
14100;SDS011;7127;49.372;8.166;2022-09-04T03:22:06;1.10;;;1.00;;
14100;SDS011;7127;49.372;8.166;2022-09-04T03:24:41;0.97;;;0.97;;
14100;SDS011;7127;49.372;8.166;2022-09-04T03:27:23;1.00;;;1.00;;
14100;SDS011;7127;49.372;8.166;2022-09-04T03:29:53;1.53;;;1.00;;
14100;SDS011;7127;49.372;8.166;2022-09-04T03:32:31;0.97;;;0.97;;
14100;SDS011;7127;49.372;8.166;2022-09-04T03:35:06;1.30;;;1.20;;
14100;SDS011;7127;49.372;8.166;2022-09-04T03:40:35;1.30;;;1.00;;
14100;SDS011;7127;49.372;8.166;2022-09-04T03:45:54;1.13;;;1.07;;
14100;SDS011;7127;49.372;8.166;2022-09-04T03:48:33;1.03;;;1.03;;
14100;SDS011;7127;49.372;8.166;2022-09-04T03:51:10;0.97;;;0.90;;
14100;SDS011;7127;49.372;8.166;2022-09-04T03:53:43;0.93;;;0.93;;
14100;SDS011;7127;49.372;8.166;2022-09-04T03:56:21;0.90;;;0.90;;
14100;SDS011;7127;49.372;8.166;2022-09-04T03:59:03;1.20;;;1.10;;
14100;SDS011;7127;49.372;8.166;2022-09-04T04:01:37;0.80;;;0.80;;
14100;SDS011;7127;49.372;8.166;2022-09-04T04:04:30;0.60;;;0.60;;
14100;SDS011;7127;49.372;8.166;2022-09-04T04:07:17;0.80;;;0.80;;
14100;SDS011;7127;49.372;8.166;2022-09-04T04:09:57;0.70;;;0.70;;
14100;SDS011;7127;49.372;8.166;2022-09-04T04:12:35;0.80;;;0.80;;
14100;SDS011;7127;49.372;8.166;2022-09-04T04:15:20;0.90;;;0.90;;
14100;SDS011;7127;49.372;8.166;2022-09-04T04:18:07;1.00;;;0.97;;
14100;SDS011;7127;49.372;8.166;2022-09-04T04:20:50;0.77;;;0.63;;
14100;SDS011;7127;49.372;8.166;2022-09-04T04:23:32;0.73;;;0.73;;
14100;SDS011;7127;49.372;8.166;2022-09-04T04:26:26;0.83;;;0.83;;
14100;SDS011;7127;49.372;8.166;2022-09-04T04:29:18;0.90;;;0.90;;
14100;SDS011;7127;49.372;8.166;2022-09-04T04:32:10;0.77;;;0.77;;
14100;SDS011;7127;49.372;8.166;2022-09-04T04:34:56;0.70;;;0.70;;
14100;SDS011;7127;49.372;8.166;2022-09-04T04:37:36;4.93;;;1.30;;
14100;SDS011;7127;49.372;8.166;2022-09-04T04:40:18;1.13;;;1.00;;
14100;SDS011;7127;49.372;8.166;2022-09-04T04:42:58;6.03;;;1.27;;
14100;SDS011;7127;49.372;8.166;2022-09-04T04:45:34;7.23;;;1.07;;
14100;SDS011;7127;49.372;8.166;2022-09-04T04:51:24;1.10;;;0.90;;
14100;SDS011;7127;49.372;8.166;2022-09-04T04:54:09;1.00;;;1.00;;
14100;SDS011;7127;49.372;8.166;2022-09-04T04:56:49;1.50;;;0.90;;
14100;SDS011;7127;49.372;8.166;2022-09-04T04:59:24;0.80;;;0.80;;
14100;SDS011;7127;49.372;8.166;2022-09-04T05:02:01;1.23;;;1.13;;
14100;SDS011;7127;49.372;8.166;2022-09-04T05:04:36;3.80;;;0.97;;
14100;SDS011;7127;49.372;8.166;2022-09-04T05:07:12;1.43;;;1.03;;
14100;SDS011;7127;49.372;8.166;2022-09-04T05:09:50;1.27;;;1.20;;
14100;SDS011;7127;49.372;8.166;2022-09-04T05:12:25;1.13;;;1.10;;
14100;SDS011;7127;49.372;8.166;2022-09-04T05:14:58;12.03;;;1.50;;
14100;SDS011;7127;49.372;8.166;2022-09-04T05:17:33;7.30;;;1.10;;
14100;SDS011;7127;49.372;8.166;2022-09-04T05:20:27;2.13;;;1.33;;
14100;SDS011;7127;49.372;8.166;2022-09-04T05:23:09;3.07;;;1.10;;
14100;SDS011;7127;49.372;8.166;2022-09-04T05:25:48;1.30;;;1.20;;
14100;SDS011;7127;49.372;8.166;2022-09-04T05:28:21;1.70;;;1.40;;
14100;SDS011;7127;49.372;8.166;2022-09-04T05:30:58;2.70;;;1.63;;
14100;SDS011;7127;49.372;8.166;2022-09-04T05:33:35;8.50;;;1.97;;
14100;SDS011;7127;49.372;8.166;2022-09-04T05:36:08;13.37;;;1.40;;
14100;SDS011;7127;49.372;8.166;2022-09-04T05:38:45;2.83;;;1.63;;
14100;SDS011;7127;49.372;8.166;2022-09-04T05:41:27;3.00;;;1.47;;
14100;SDS011;7127;49.372;8.166;2022-09-04T05:44:21;1.90;;;1.43;;
14100;SDS011;7127;49.372;8.166;2022-09-04T05:47:09;2.00;;;1.50;;
14100;SDS011;7127;49.372;8.166;2022-09-04T05:49:56;6.00;;;1.40;;
14100;SDS011;7127;49.372;8.166;2022-09-04T05:55:35;4.57;;;1.20;;
14100;SDS011;7127;49.372;8.166;2022-09-04T05:58:35;1.20;;;1.10;;
14100;SDS011;7127;49.372;8.166;2022-09-04T06:01:30;3.97;;;1.63;;
14100;SDS011;7127;49.372;8.166;2022-09-04T06:04:17;1.97;;;1.30;;
14100;SDS011;7127;49.372;8.166;2022-09-04T06:07:01;2.07;;;1.20;;
14100;SDS011;7127;49.372;8.166;2022-09-04T06:09:38;1.33;;;1.23;;
14100;SDS011;7127;49.372;8.166;2022-09-04T06:12:23;1.17;;;1.17;;
14100;SDS011;7127;49.372;8.166;2022-09-04T06:15:12;1.23;;;1.13;;
14100;SDS011;7127;49.372;8.166;2022-09-04T06:20:53;1.20;;;1.10;;
14100;SDS011;7127;49.372;8.166;2022-09-04T06:23:35;1.67;;;1.07;;
14100;SDS011;7127;49.372;8.166;2022-09-04T06:26:26;1.00;;;1.00;;
14100;SDS011;7127;49.372;8.166;2022-09-04T06:29:23;1.20;;;1.10;;
14100;SDS011;7127;49.372;8.166;2022-09-04T06:34:58;1.27;;;1.17;;
14100;SDS011;7127;49.372;8.166;2022-09-04T06:37:36;0.90;;;0.90;;
14100;SDS011;7127;49.372;8.166;2022-09-04T06:40:16;1.03;;;1.03;;
14100;SDS011;7127;49.372;8.166;2022-09-04T06:42:58;0.90;;;0.90;;
14100;SDS011;7127;49.372;8.166;2022-09-04T06:45:36;1.20;;;1.10;;
14100;SDS011;7127;49.372;8.166;2022-09-04T06:48:19;1.00;;;1.00;;
14100;SDS011;7127;49.372;8.166;2022-09-04T06:50:56;1.23;;;1.13;;
14100;SDS011;7127;49.372;8.166;2022-09-04T06:53:40;1.10;;;1.00;;
14100;SDS011;7127;49.372;8.166;2022-09-04T06:56:15;1.40;;;1.30;;
14100;SDS011;7127;49.372;8.166;2022-09-04T06:58:58;1.47;;;1.37;;
14100;SDS011;7127;49.372;8.166;2022-09-04T07:01:49;1.40;;;1.30;;
14100;SDS011;7127;49.372;8.166;2022-09-04T07:04:33;1.30;;;1.20;;
14100;SDS011;7127;49.372;8.166;2022-09-04T07:07:13;1.87;;;1.47;;
14100;SDS011;7127;49.372;8.166;2022-09-04T07:09:47;1.40;;;1.30;;
14100;SDS011;7127;49.372;8.166;2022-09-04T07:12:24;1.30;;;1.20;;
14100;SDS011;7127;49.372;8.166;2022-09-04T07:15:18;1.40;;;1.30;;
14100;SDS011;7127;49.372;8.166;2022-09-04T07:18:07;1.40;;;1.30;;
14100;SDS011;7127;49.372;8.166;2022-09-04T07:20:48;1.07;;;1.00;;
14100;SDS011;7127;49.372;8.166;2022-09-04T07:23:26;1.50;;;1.40;;
14100;SDS011;7127;49.372;8.166;2022-09-04T07:26:02;1.60;;;1.50;;
14100;SDS011;7127;49.372;8.166;2022-09-04T07:28:50;1.73;;;1.63;;
14100;SDS011;7127;49.372;8.166;2022-09-04T07:31:33;1.40;;;1.30;;
14100;SDS011;7127;49.372;8.166;2022-09-04T07:34:07;1.50;;;1.40;;
14100;SDS011;7127;49.372;8.166;2022-09-04T07:36:43;5.10;;;1.30;;
14100;SDS011;7127;49.372;8.166;2022-09-04T07:39:27;1.50;;;1.40;;
14100;SDS011;7127;49.372;8.166;2022-09-04T07:42:10;1.80;;;1.67;;
14100;SDS011;7127;49.372;8.166;2022-09-04T07:44:44;1.90;;;1.80;;
14100;SDS011;7127;49.372;8.166;2022-09-04T07:47:16;1.70;;;1.60;;
14100;SDS011;7127;49.372;8.166;2022-09-04T07:49:52;2.33;;;1.80;;
14100;SDS011;7127;49.372;8.166;2022-09-04T07:52:34;3.07;;;1.87;;
14100;SDS011;7127;49.372;8.166;2022-09-04T07:55:13;1.80;;;1.70;;
14100;SDS011;7127;49.372;8.166;2022-09-04T07:57:59;1.73;;;1.63;;
14100;SDS011;7127;49.372;8.166;2022-09-04T08:00:48;1.70;;;1.60;;
14100;SDS011;7127;49.372;8.166;2022-09-04T08:03:31;1.63;;;1.53;;
14100;SDS011;7127;49.372;8.166;2022-09-04T08:06:11;1.80;;;1.70;;
14100;SDS011;7127;49.372;8.166;2022-09-04T08:08:56;1.73;;;1.63;;
14100;SDS011;7127;49.372;8.166;2022-09-04T08:11:41;1.70;;;1.50;;
14100;SDS011;7127;49.372;8.166;2022-09-04T08:14:19;2.57;;;1.70;;
14100;SDS011;7127;49.372;8.166;2022-09-04T08:16:52;2.20;;;2.00;;
14100;SDS011;7127;49.372;8.166;2022-09-04T08:19:49;1.80;;;1.70;;
14100;SDS011;7127;49.372;8.166;2022-09-04T08:22:28;1.87;;;1.77;;
14100;SDS011;7127;49.372;8.166;2022-09-04T08:27:59;1.80;;;1.70;;
14100;SDS011;7127;49.372;8.166;2022-09-04T08:30:52;1.83;;;1.73;;
14100;SDS011;7127;49.372;8.166;2022-09-04T08:36:29;2.30;;;2.10;;
14100;SDS011;7127;49.372;8.166;2022-09-04T08:39:04;1.70;;;1.60;;
14100;SDS011;7127;49.372;8.166;2022-09-04T08:48:03;1.83;;;1.73;;
14100;SDS011;7127;49.372;8.166;2022-09-04T08:51:16;1.97;;;1.87;;
14100;SDS011;7127;49.372;8.166;2022-09-04T08:57:16;2.47;;;2.27;;
14100;SDS011;7127;49.372;8.166;2022-09-04T09:00:05;2.37;;;2.17;;
14100;SDS011;7127;49.372;8.166;2022-09-04T09:05:53;2.70;;;2.00;;
14100;SDS011;7127;49.372;8.166;2022-09-04T09:08:43;2.13;;;1.93;;
14100;SDS011;7127;49.372;8.166;2022-09-04T09:11:53;2.27;;;2.07;;
14100;SDS011;7127;49.372;8.166;2022-09-04T09:18:00;2.13;;;1.93;;
14100;SDS011;7127;49.372;8.166;2022-09-04T09:20:29;2.47;;;2.27;;
14100;SDS011;7127;49.372;8.166;2022-09-04T09:26:02;2.90;;;2.70;;
14100;SDS011;7127;49.372;8.166;2022-09-04T09:29:11;3.53;;;1.93;;
14100;SDS011;7127;49.372;8.166;2022-09-04T09:32:08;2.00;;;1.90;;
14100;SDS011;7127;49.372;8.166;2022-09-04T09:44:34;1.90;;;1.80;;
14100;SDS011;7127;49.372;8.166;2022-09-04T09:50:47;2.70;;;2.50;;
14100;SDS011;7127;49.372;8.166;2022-09-04T09:53:40;1.80;;;1.70;;
14100;SDS011;7127;49.372;8.166;2022-09-04T09:59:54;2.40;;;2.20;;
14100;SDS011;7127;49.372;8.166;2022-09-04T10:06:05;2.40;;;2.20;;
14100;SDS011;7127;49.372;8.166;2022-09-04T10:09:05;2.23;;;2.00;;
14100;SDS011;7127;49.372;8.166;2022-09-04T10:12:06;2.07;;;1.90;;
14100;SDS011;7127;49.372;8.166;2022-09-04T10:17:55;3.53;;;2.57;;
14100;SDS011;7127;49.372;8.166;2022-09-04T10:24:02;2.83;;;2.63;;
14100;SDS011;7127;49.372;8.166;2022-09-04T10:26:59;2.70;;;2.50;;
14100;SDS011;7127;49.372;8.166;2022-09-04T10:29:50;2.40;;;2.20;;
14100;SDS011;7127;49.372;8.166;2022-09-04T10:32:37;2.10;;;1.90;;
14100;SDS011;7127;49.372;8.166;2022-09-04T10:35:24;2.10;;;2.00;;
14100;SDS011;7127;49.372;8.166;2022-09-04T10:38:10;2.40;;;2.20;;
14100;SDS011;7127;49.372;8.166;2022-09-04T10:46:50;3.70;;;3.10;;
14100;SDS011;7127;49.372;8.166;2022-09-04T10:49:32;3.13;;;2.93;;
14100;SDS011;7127;49.372;8.166;2022-09-04T10:55:34;2.60;;;2.40;;
14100;SDS011;7127;49.372;8.166;2022-09-04T10:58:17;2.57;;;2.37;;
14100;SDS011;7127;49.372;8.166;2022-09-04T11:04:32;2.80;;;2.60;;
14100;SDS011;7127;49.372;8.166;2022-09-04T11:16:13;2.40;;;2.20;;
14100;SDS011;7127;49.372;8.166;2022-09-04T11:25:30;2.80;;;2.60;;
14100;SDS011;7127;49.372;8.166;2022-09-04T11:31:29;2.77;;;2.57;;
14100;SDS011;7127;49.372;8.166;2022-09-04T11:34:24;2.35;;;2.15;;
14100;SDS011;7127;49.372;8.166;2022-09-04T11:40:38;2.40;;;2.20;;
14100;SDS011;7127;49.372;8.166;2022-09-04T11:43:35;2.38;;;2.15;;
14100;SDS011;7127;49.372;8.166;2022-09-04T11:46:27;3.88;;;2.58;;
14100;SDS011;7127;49.372;8.166;2022-09-04T11:49:36;2.53;;;2.33;;
14100;SDS011;7127;49.372;8.166;2022-09-04T11:52:25;2.60;;;2.40;;
14100;SDS011;7127;49.372;8.166;2022-09-04T11:55:08;2.67;;;2.47;;
14100;SDS011;7127;49.372;8.166;2022-09-04T11:57:57;1.90;;;1.80;;
14100;SDS011;7127;49.372;8.166;2022-09-04T12:00:41;2.25;;;2.05;;
14100;SDS011;7127;49.372;8.166;2022-09-04T12:03:27;1.95;;;1.85;;
14100;SDS011;7127;49.372;8.166;2022-09-04T12:06:26;2.17;;;2.00;;
14100;SDS011;7127;49.372;8.166;2022-09-04T12:18:24;1.35;;;1.25;;
14100;SDS011;7127;49.372;8.166;2022-09-04T12:21:22;1.73;;;1.25;;
14100;SDS011;7127;49.372;8.166;2022-09-04T12:27:29;1.50;;;1.33;;
14100;SDS011;7127;49.372;8.166;2022-09-04T12:30:14;1.30;;;1.20;;
14100;SDS011;7127;49.372;8.166;2022-09-04T12:33:06;1.00;;;1.00;;
14100;SDS011;7127;49.372;8.166;2022-09-04T12:36:05;0.88;;;0.88;;
14100;SDS011;7127;49.372;8.166;2022-09-04T12:38:49;1.30;;;1.20;;
14100;SDS011;7127;49.372;8.166;2022-09-04T12:47:01;1.55;;;1.10;;
14100;SDS011;7127;49.372;8.166;2022-09-04T12:49:43;2.15;;;0.90;;
14100;SDS011;7127;49.372;8.166;2022-09-04T12:52:32;0.85;;;0.80;;
14100;SDS011;7127;49.372;8.166;2022-09-04T12:55:12;0.77;;;0.70;;
14100;SDS011;7127;49.372;8.166;2022-09-04T12:57:48;0.80;;;0.80;;
14100;SDS011;7127;49.372;8.166;2022-09-04T13:00:31;0.75;;;0.75;;
14100;SDS011;7127;49.372;8.166;2022-09-04T13:03:08;1.17;;;1.08;;
14100;SDS011;7127;49.372;8.166;2022-09-04T13:05:55;0.70;;;0.70;;
14100;SDS011;7127;49.372;8.166;2022-09-04T13:08:35;0.70;;;0.70;;
14100;SDS011;7127;49.372;8.166;2022-09-04T13:11:15;2.10;;;0.90;;
14100;SDS011;7127;49.372;8.166;2022-09-04T13:13:49;0.70;;;0.70;;
14100;SDS011;7127;49.372;8.166;2022-09-04T13:16:27;0.80;;;0.80;;
14100;SDS011;7127;49.372;8.166;2022-09-04T13:19:02;0.85;;;0.70;;
14100;SDS011;7127;49.372;8.166;2022-09-04T13:21:47;0.60;;;0.60;;
14100;SDS011;7127;49.372;8.166;2022-09-04T13:24:30;0.70;;;0.70;;
14100;SDS011;7127;49.372;8.166;2022-09-04T13:27:10;0.90;;;0.90;;
14100;SDS011;7127;49.372;8.166;2022-09-04T13:30:00;1.00;;;0.90;;
14100;SDS011;7127;49.372;8.166;2022-09-04T13:32:37;1.10;;;0.88;;
14100;SDS011;7127;49.372;8.166;2022-09-04T13:35:31;0.73;;;0.73;;
14100;SDS011;7127;49.372;8.166;2022-09-04T13:41:13;1.48;;;0.80;;
14100;SDS011;7127;49.372;8.166;2022-09-04T13:43:58;0.60;;;0.60;;
14100;SDS011;7127;49.372;8.166;2022-09-04T13:46:42;0.70;;;0.70;;
14100;SDS011;7127;49.372;8.166;2022-09-04T13:49:14;0.98;;;0.90;;
14100;SDS011;7127;49.372;8.166;2022-09-04T13:51:49;0.60;;;0.60;;
14100;SDS011;7127;49.372;8.166;2022-09-04T13:54:25;0.73;;;0.70;;
14100;SDS011;7127;49.372;8.166;2022-09-04T13:57:01;0.65;;;0.65;;
14100;SDS011;7127;49.372;8.166;2022-09-04T13:59:34;0.70;;;0.70;;
14100;SDS011;7127;49.372;8.166;2022-09-04T14:02:03;0.82;;;0.80;;
14100;SDS011;7127;49.372;8.166;2022-09-04T14:05:00;0.70;;;0.70;;
14100;SDS011;7127;49.372;8.166;2022-09-04T14:07:32;0.88;;;0.75;;
14100;SDS011;7127;49.372;8.166;2022-09-04T14:10:04;0.60;;;0.60;;
14100;SDS011;7127;49.372;8.166;2022-09-04T14:12:45;2.35;;;0.70;;
14100;SDS011;7127;49.372;8.166;2022-09-04T14:18:30;0.60;;;0.60;;
14100;SDS011;7127;49.372;8.166;2022-09-04T14:21:29;0.50;;;0.50;;
14100;SDS011;7127;49.372;8.166;2022-09-04T14:24:05;0.60;;;0.60;;
14100;SDS011;7127;49.372;8.166;2022-09-04T14:26:42;0.80;;;0.80;;
14100;SDS011;7127;49.372;8.166;2022-09-04T14:29:21;0.80;;;0.80;;
14100;SDS011;7127;49.372;8.166;2022-09-04T14:31:59;0.77;;;0.77;;
14100;SDS011;7127;49.372;8.166;2022-09-04T14:34:37;0.60;;;0.60;;
14100;SDS011;7127;49.372;8.166;2022-09-04T14:37:17;0.70;;;0.70;;
14100;SDS011;7127;49.372;8.166;2022-09-04T14:39:55;0.95;;;0.80;;
14100;SDS011;7127;49.372;8.166;2022-09-04T14:42:36;0.80;;;0.80;;
14100;SDS011;7127;49.372;8.166;2022-09-04T14:48:08;0.70;;;0.70;;
14100;SDS011;7127;49.372;8.166;2022-09-04T14:50:42;0.70;;;0.70;;
14100;SDS011;7127;49.372;8.166;2022-09-04T14:53:18;0.73;;;0.73;;
14100;SDS011;7127;49.372;8.166;2022-09-04T14:58:44;0.88;;;0.88;;
14100;SDS011;7127;49.372;8.166;2022-09-04T15:01:17;0.70;;;0.70;;
14100;SDS011;7127;49.372;8.166;2022-09-04T15:03:47;0.75;;;0.75;;
14100;SDS011;7127;49.372;8.166;2022-09-04T15:06:22;0.55;;;0.55;;
14100;SDS011;7127;49.372;8.166;2022-09-04T15:08:55;0.77;;;0.75;;
14100;SDS011;7127;49.372;8.166;2022-09-04T15:11:26;0.80;;;0.80;;
14100;SDS011;7127;49.372;8.166;2022-09-04T15:13:58;0.50;;;0.50;;
14100;SDS011;7127;49.372;8.166;2022-09-04T15:16:43;0.70;;;0.70;;
14100;SDS011;7127;49.372;8.166;2022-09-04T15:19:23;0.70;;;0.70;;
14100;SDS011;7127;49.372;8.166;2022-09-04T15:21:57;0.73;;;0.73;;
14100;SDS011;7127;49.372;8.166;2022-09-04T15:24:32;0.70;;;0.70;;
14100;SDS011;7127;49.372;8.166;2022-09-04T15:27:08;0.93;;;0.60;;
14100;SDS011;7127;49.372;8.166;2022-09-04T15:29:47;0.60;;;0.60;;
14100;SDS011;7127;49.372;8.166;2022-09-04T15:32:29;1.45;;;0.60;;
14100;SDS011;7127;49.372;8.166;2022-09-04T15:35:10;0.80;;;0.80;;
14100;SDS011;7127;49.372;8.166;2022-09-04T15:37:47;1.27;;;0.80;;
14100;SDS011;7127;49.372;8.166;2022-09-04T15:40:23;0.80;;;0.80;;
14100;SDS011;7127;49.372;8.166;2022-09-04T15:42:59;0.77;;;0.77;;
14100;SDS011;7127;49.372;8.166;2022-09-04T15:45:39;0.80;;;0.80;;
14100;SDS011;7127;49.372;8.166;2022-09-04T15:48:21;0.70;;;0.70;;
14100;SDS011;7127;49.372;8.166;2022-09-04T15:51:02;1.80;;;0.57;;
14100;SDS011;7127;49.372;8.166;2022-09-04T15:53:47;1.02;;;0.70;;
14100;SDS011;7127;49.372;8.166;2022-09-04T15:56:32;0.60;;;0.60;;
14100;SDS011;7127;49.372;8.166;2022-09-04T15:59:07;0.70;;;0.70;;
14100;SDS011;7127;49.372;8.166;2022-09-04T16:01:42;0.70;;;0.70;;
14100;SDS011;7127;49.372;8.166;2022-09-04T16:04:23;0.80;;;0.80;;
14100;SDS011;7127;49.372;8.166;2022-09-04T16:06:58;0.90;;;0.70;;
14100;SDS011;7127;49.372;8.166;2022-09-04T16:09:45;0.60;;;0.60;;
14100;SDS011;7127;49.372;8.166;2022-09-04T16:12:19;0.63;;;0.60;;
14100;SDS011;7127;49.372;8.166;2022-09-04T16:14:52;0.40;;;0.40;;
14100;SDS011;7127;49.372;8.166;2022-09-04T16:17:27;0.60;;;0.60;;
14100;SDS011;7127;49.372;8.166;2022-09-04T16:19:57;1.65;;;0.70;;
14100;SDS011;7127;49.372;8.166;2022-09-04T16:22:31;0.77;;;0.77;;
14100;SDS011;7127;49.372;8.166;2022-09-04T16:25:05;1.88;;;0.73;;
14100;SDS011;7127;49.372;8.166;2022-09-04T16:27:37;0.70;;;0.70;;
14100;SDS011;7127;49.372;8.166;2022-09-04T16:30:23;1.55;;;0.80;;
14100;SDS011;7127;49.372;8.166;2022-09-04T16:33:01;1.70;;;0.90;;
14100;SDS011;7127;49.372;8.166;2022-09-04T16:35:30;0.68;;;0.68;;
14100;SDS011;7127;49.372;8.166;2022-09-04T16:38:04;0.60;;;0.60;;
14100;SDS011;7127;49.372;8.166;2022-09-04T16:40:35;1.15;;;0.77;;
14100;SDS011;7127;49.372;8.166;2022-09-04T16:43:15;1.58;;;0.70;;
14100;SDS011;7127;49.372;8.166;2022-09-04T16:45:49;0.70;;;0.70;;
14100;SDS011;7127;49.372;8.166;2022-09-04T16:48:21;0.82;;;0.70;;
14100;SDS011;7127;49.372;8.166;2022-09-04T16:50:57;0.70;;;0.70;;
14100;SDS011;7127;49.372;8.166;2022-09-04T16:53:32;0.80;;;0.80;;
14100;SDS011;7127;49.372;8.166;2022-09-04T16:56:09;0.60;;;0.60;;
14100;SDS011;7127;49.372;8.166;2022-09-04T16:58:46;0.70;;;0.70;;
14100;SDS011;7127;49.372;8.166;2022-09-04T17:01:19;0.52;;;0.52;;
14100;SDS011;7127;49.372;8.166;2022-09-04T17:03:56;0.70;;;0.70;;
14100;SDS011;7127;49.372;8.166;2022-09-04T17:06:47;0.80;;;0.80;;
14100;SDS011;7127;49.372;8.166;2022-09-04T17:09:28;0.63;;;0.63;;
14100;SDS011;7127;49.372;8.166;2022-09-04T17:12:10;0.70;;;0.65;;
14100;SDS011;7127;49.372;8.166;2022-09-04T17:14:44;0.80;;;0.80;;
14100;SDS011;7127;49.372;8.166;2022-09-04T17:17:17;0.88;;;0.88;;
14100;SDS011;7127;49.372;8.166;2022-09-04T17:19:50;0.70;;;0.70;;
14100;SDS011;7127;49.372;8.166;2022-09-04T17:22:27;0.70;;;0.60;;
14100;SDS011;7127;49.372;8.166;2022-09-04T17:27:50;0.90;;;0.75;;
14100;SDS011;7127;49.372;8.166;2022-09-04T17:30:31;0.75;;;0.75;;
14100;SDS011;7127;49.372;8.166;2022-09-04T17:33:05;0.70;;;0.70;;
14100;SDS011;7127;49.372;8.166;2022-09-04T17:35:43;0.80;;;0.80;;
14100;SDS011;7127;49.372;8.166;2022-09-04T17:38:16;1.10;;;1.00;;
14100;SDS011;7127;49.372;8.166;2022-09-04T17:40:57;0.70;;;0.70;;
14100;SDS011;7127;49.372;8.166;2022-09-04T17:43:36;0.98;;;0.60;;
14100;SDS011;7127;49.372;8.166;2022-09-04T17:46:25;0.90;;;0.90;;
14100;SDS011;7127;49.372;8.166;2022-09-04T17:49:00;1.10;;;1.00;;
14100;SDS011;7127;49.372;8.166;2022-09-04T17:51:38;0.87;;;0.87;;
14100;SDS011;7127;49.372;8.166;2022-09-04T17:54:09;1.03;;;0.93;;
14100;SDS011;7127;49.372;8.166;2022-09-04T17:56:39;1.00;;;0.90;;
14100;SDS011;7127;49.372;8.166;2022-09-04T17:59:11;0.63;;;0.63;;
14100;SDS011;7127;49.372;8.166;2022-09-04T18:01:50;1.20;;;0.80;;
14100;SDS011;7127;49.372;8.166;2022-09-04T18:04:26;1.40;;;0.87;;
14100;SDS011;7127;49.372;8.166;2022-09-04T18:07:00;0.80;;;0.80;;
14100;SDS011;7127;49.372;8.166;2022-09-04T18:09:36;0.97;;;0.80;;
14100;SDS011;7127;49.372;8.166;2022-09-04T18:12:10;0.87;;;0.80;;
14100;SDS011;7127;49.372;8.166;2022-09-04T18:14:51;1.10;;;1.00;;
14100;SDS011;7127;49.372;8.166;2022-09-04T18:17:31;1.17;;;1.07;;
14100;SDS011;7127;49.372;8.166;2022-09-04T18:20:04;1.00;;;0.90;;
14100;SDS011;7127;49.372;8.166;2022-09-04T18:25:27;1.03;;;0.93;;
14100;SDS011;7127;49.372;8.166;2022-09-04T18:28:00;0.70;;;0.70;;
14100;SDS011;7127;49.372;8.166;2022-09-04T18:30:33;1.77;;;1.30;;
14100;SDS011;7127;49.372;8.166;2022-09-04T18:33:14;1.10;;;1.00;;
14100;SDS011;7127;49.372;8.166;2022-09-04T18:35:49;2.03;;;1.00;;
14100;SDS011;7127;49.372;8.166;2022-09-04T18:38:28;1.03;;;0.90;;
14100;SDS011;7127;49.372;8.166;2022-09-04T18:41:04;1.13;;;0.90;;
14100;SDS011;7127;49.372;8.166;2022-09-04T18:43:35;0.97;;;0.90;;